Time;durP1;ratioP1;P1;durP2;ratioP2;P2;SDS_P1;SDS_P2;PMS_P1;PMS_P2;Temp;Humidity;BMP_temperature;BMP_pressure;BME280_temperature;BME280_humidity;BME280_pressure;Samples;Min_cycle;Max_cycle;Signal;HPM_P1;HPM_P2
2023/07/14 00:01:28;;;;;;;;;;;;;;;16.90;46.20;100516.44;4997505;28;1906;-60
2023/07/14 00:03:53;;;;;;;;;;;;;;;16.88;46.44;100513.16;5009314;28;1067;-60
2023/07/14 00:06:20;;;;;;;;;;;;;;;16.86;46.43;100518.09;5012615;28;1067;-60
2023/07/14 00:08:47;;;;;;;;;;;;;;;16.94;46.10;100512.03;4997580;28;1112;-60
2023/07/14 00:11:13;;;;;;;;;;;;;;;16.91;46.27;100509.84;4986022;28;1052;-60
2023/07/14 00:13:39;;;;;;;;;;;;;;;16.79;46.80;100509.31;4996029;28;1024;-60
2023/07/14 00:16:14;;;;;;;;;;;;;;;16.84;46.42;100503.81;4997428;28;1103;-60
2023/07/14 00:18:40;;;;;;;;;;;;;;;16.81;46.47;100507.13;4999682;28;988;-61
2023/07/14 00:21:05;;;;;;;;;;;;;;;16.82;46.33;100493.13;4996636;28;1969;-60
2023/07/14 00:23:31;;;;;;;;;;;;;;;16.80;46.26;100500.81;4984547;28;1063;-61
2023/07/14 00:25:56;;;;;;;;;;;;;;;16.81;46.51;100501.66;4997042;28;1127;-61
2023/07/14 00:28:22;;;;;;;;;;;;;;;16.79;46.52;100484.63;4997309;28;1152;-60
2023/07/14 00:30:48;;;;;;;;;;;;;;;16.86;46.38;100482.41;4996715;28;1043;-60
2023/07/14 00:33:17;;;;;;;;;;;;;;;16.82;46.31;100481.34;4992879;28;1237;-60
2023/07/14 00:35:43;;;;;;;;;;;;;;;16.85;46.24;100483.50;4991518;28;1117;-62
2023/07/14 00:38:09;;;;;;;;;;;;;;;16.92;46.05;100486.78;4997109;28;958;-62
2023/07/14 00:40:38;;;;;;;;;;;;;;;16.85;46.13;100486.25;5011919;28;1905;-61
2023/07/14 00:43:05;;;;;;;;;;;;;;;16.82;46.26;100486.81;4996799;28;1148;-62
2023/07/14 00:45:31;;;;;;;;;;;;;;;16.83;46.22;100499.44;4997076;28;1211;-61
2023/07/14 00:48:03;;;;;;;;;;;;;;;16.75;46.29;100504.41;4997075;28;1132;-60
2023/07/14 00:50:34;;;;;;;;;;;;;;;16.84;46.10;100492.84;5005239;28;1014;-61
2023/07/14 00:53:01;;;;;;;;;;;;;;;16.86;46.29;100496.94;4990606;28;1092;-61
2023/07/14 00:55:30;;;;;;;;;;;;;;;16.79;46.27;100492.84;4993824;28;2337;-62
2023/07/14 00:57:56;;;;;;;;;;;;;;;16.80;46.40;100478.84;4987557;28;1072;-62
2023/07/14 01:00:26;;;;;;;;;;;;;;;16.88;45.93;100485.69;5004512;28;1903;-61
2023/07/14 01:02:52;;;;;;;;;;;;;;;16.72;46.46;100484.94;4996561;28;988;-61
2023/07/14 01:05:17;;;;;;;;;;;;;;;16.81;46.06;100476.94;4983397;28;1084;-61
2023/07/14 01:07:43;;;;;;;;;;;;;;;16.81;46.13;100476.94;4985339;28;1317;-62
2023/07/14 01:10:09;;;;;;;;;;;;;;;16.76;46.18;100473.09;5011723;28;1210;-61
2023/07/14 01:12:35;;;;;;;;;;;;;;;16.79;46.55;100470.88;5001258;28;1114;-61
2023/07/14 01:15:01;;;;;;;;;;;;;;;16.83;46.08;100469.22;4995105;28;1107;-61
2023/07/14 01:17:27;;;;;;;;;;;;;;;16.81;46.30;100468.69;5011599;28;1091;-60
2023/07/14 01:19:52;;;;;;;;;;;;;;;16.76;46.52;100466.81;4996596;28;1902;-61
2023/07/14 01:22:18;;;;;;;;;;;;;;;16.82;46.25;100462.09;4996701;28;1127;-59
2023/07/14 01:24:49;;;;;;;;;;;;;;;16.80;46.19;100456.88;4996072;28;1119;-61
2023/07/14 01:27:15;;;;;;;;;;;;;;;16.83;46.26;100472.81;4985736;28;1267;-61
2023/07/14 01:29:43;;;;;;;;;;;;;;;16.73;46.41;100464.59;4996808;28;1107;-61
2023/07/14 01:32:16;;;;;;;;;;;;;;;16.79;46.28;100448.91;4986654;28;1067;-61
2023/07/14 01:34:41;;;;;;;;;;;;;;;16.65;46.31;100449.56;4994297;28;1084;-61
2023/07/14 01:37:08;;;;;;;;;;;;;;;16.70;46.60;100446.75;5011519;28;1465;-60
2023/07/14 01:39:34;;;;;;;;;;;;;;;16.72;46.41;100439.09;4982471;28;1613;-60
2023/07/14 01:41:59;;;;;;;;;;;;;;;16.73;46.33;100446.22;4986888;28;1907;-60
2023/07/14 01:44:25;;;;;;;;;;;;;;;16.71;46.39;100455.84;4990304;28;1072;-62
2023/07/14 01:46:50;;;;;;;;;;;;;;;16.72;46.25;100469.28;4995157;28;1139;-61
2023/07/14 01:49:25;;;;;;;;;;;;;;;16.76;46.26;100477.78;4994912;28;1395;-59
2023/07/14 01:51:52;;;;;;;;;;;;;;;16.73;46.18;100467.34;4995037;28;1316;-61
2023/07/14 01:54:30;;;;;;;;;;;;;;;16.74;46.10;100458.81;5011329;28;1084;-63
2023/07/14 01:56:56;;;;;;;;;;;;;;;16.79;45.94;100454.41;5009756;28;1151;-60
2023/07/14 01:59:28;;;;;;;;;;;;;;;16.72;46.18;100450.06;4983788;28;1134;-60
2023/07/14 02:01:54;;;;;;;;;;;;;;;16.74;46.08;100464.31;5006772;28;1914;-60
2023/07/14 02:04:23;;;;;;;;;;;;;;;16.72;46.37;100463.78;4996144;28;1123;-60
2023/07/14 02:06:49;;;;;;;;;;;;;;;16.70;46.06;100449.50;4996907;28;1211;-61
2023/07/14 02:09:16;;;;;;;;;;;;;;;16.77;46.07;100457.44;5015067;28;1524;-60
2023/07/14 02:11:43;;;;;;;;;;;;;;;16.79;46.29;100473.63;5011099;28;1203;-59
2023/07/14 02:14:10;;;;;;;;;;;;;;;16.72;46.49;100461.03;4996809;28;1045;-60
2023/07/14 02:16:36;;;;;;;;;;;;;;;16.74;46.53;100474.50;5011435;28;1128;-61
2023/07/14 02:19:02;;;;;;;;;;;;;;;16.71;46.49;100466.81;4999723;28;1051;-61
2023/07/14 02:21:28;;;;;;;;;;;;;;;16.64;46.57;100467.13;4985164;28;1965;-61
2023/07/14 02:23:54;;;;;;;;;;;;;;;16.65;46.72;100466.03;4988208;28;1065;-58
2023/07/14 02:26:38;;;;;;;;;;;;;;;16.67;46.62;100480.28;4997515;28;1111;-61
2023/07/14 02:29:05;;;;;;;;;;;;;;;16.76;46.25;100477.78;5007163;28;1108;-61
2023/07/14 02:31:36;;;;;;;;;;;;;;;16.73;46.43;100473.69;5000624;28;1578;-61
2023/07/14 02:34:02;;;;;;;;;;;;;;;16.68;46.61;100470.94;5011333;28;1047;-61
2023/07/14 02:36:42;;;;;;;;;;;;;;;16.81;46.32;100463.19;4992860;28;1159;-61
2023/07/14 02:39:07;;;;;;;;;;;;;;;16.71;46.38;100451.16;4991707;28;1448;-60
2023/07/14 02:41:35;;;;;;;;;;;;;;;16.71;46.35;100473.13;4987478;28;1907;-60
2023/07/14 02:44:02;;;;;;;;;;;;;;;16.73;46.25;100476.44;4996139;28;1301;-60
2023/07/14 02:46:37;;;;;;;;;;;;;;;16.70;46.56;100462.44;4998007;28;1218;-62
2023/07/14 02:49:04;;;;;;;;;;;;;;;16.77;46.17;100441.81;4997587;28;1179;-61
2023/07/14 02:51:29;;;;;;;;;;;;;;;16.69;46.43;100436.91;4999063;28;1017;-61
2023/07/14 02:53:55;;;;;;;;;;;;;;;16.72;46.03;100428.09;4999296;28;1051;-61
2023/07/14 02:56:21;;;;;;;;;;;;;;;16.71;46.24;100426.44;4989294;28;1107;-61
2023/07/14 02:58:49;;;;;;;;;;;;;;;16.69;46.33;100430.56;4995543;28;1160;-61
2023/07/14 03:01:15;;;;;;;;;;;;;;;16.68;46.30;100435.25;4994473;28;1975;-61
2023/07/14 03:03:44;;;;;;;;;;;;;;;16.63;46.23;100440.75;5010920;28;898;-62
2023/07/14 03:06:11;;;;;;;;;;;;;;;16.76;45.96;100447.59;4998588;28;969;-60
2023/07/14 03:08:36;;;;;;;;;;;;;;;16.69;46.34;100447.06;5013631;28;1308;-61
2023/07/14 03:11:02;;;;;;;;;;;;;;;16.68;46.15;100448.97;4997262;28;1179;-61
2023/07/14 03:13:28;;;;;;;;;;;;;;;16.73;46.12;100459.94;4997415;28;1040;-61
2023/07/14 03:15:53;;;;;;;;;;;;;;;16.67;46.38;100455.56;4988063;28;929;-64
2023/07/14 03:18:20;;;;;;;;;;;;;;;16.61;46.21;100453.97;4994479;28;1247;-62
2023/07/14 03:20:46;;;;;;;;;;;;;;;16.67;46.24;100447.34;4998603;28;1968;-63
2023/07/14 03:23:11;;;;;;;;;;;;;;;16.56;46.52;100449.31;4998690;28;1164;-63
2023/07/14 03:25:37;;;;;;;;;;;;;;;16.66;46.57;100450.38;4997174;28;1226;-62
2023/07/14 03:28:03;;;;;;;;;;;;;;;16.69;46.44;100445.16;4986612;28;901;-63
2023/07/14 03:30:29;;;;;;;;;;;;;;;16.66;46.57;100453.09;4991517;28;1131;-61
2023/07/14 03:32:54;;;;;;;;;;;;;;;16.64;46.26;100445.16;4997299;28;1442;-58
2023/07/14 03:35:20;;;;;;;;;;;;;;;16.68;46.05;100448.97;4984377;28;1720;-57
2023/07/14 03:37:46;;;;;;;;;;;;;;;16.63;46.26;100451.75;4997477;28;1199;-58
2023/07/14 03:40:12;;;;;;;;;;;;;;;16.64;46.57;100453.41;4997737;28;1918;-58
2023/07/14 03:42:38;;;;;;;;;;;;;;;16.59;46.42;100448.75;4981358;28;2173;-57
2023/07/14 03:45:05;;;;;;;;;;;;;;;16.74;46.00;100439.59;4998233;28;1128;-59
2023/07/14 03:47:31;;;;;;;;;;;;;;;16.67;46.34;100450.09;4993914;28;1167;-59
2023/07/14 03:49:57;;;;;;;;;;;;;;;16.74;46.40;100453.34;4978827;28;1068;-58
2023/07/14 03:52:22;;;;;;;;;;;;;;;16.73;46.71;100451.72;4997252;28;1003;-58
2023/07/14 03:54:48;;;;;;;;;;;;;;;16.80;46.83;100456.88;4998257;28;1091;-61
2023/07/14 03:57:13;;;;;;;;;;;;;;;16.71;46.90;100458.59;4998104;28;1096;-61
2023/07/14 03:59:39;;;;;;;;;;;;;;;16.83;46.82;100458.25;4998233;28;1140;-59
2023/07/14 04:02:05;;;;;;;;;;;;;;;16.82;47.47;100459.38;4995952;28;1906;-60
2023/07/14 04:04:31;;;;;;;;;;;;;;;16.93;47.05;100459.03;4996597;28;1298;-59
2023/07/14 04:07:00;;;;;;;;;;;;;;;17.09;47.08;100468.00;4996206;28;1146;-59
2023/07/14 04:09:26;;;;;;;;;;;;;;;17.09;46.49;100465.25;5011945;28;1205;-59
2023/07/14 04:11:51;;;;;;;;;;;;;;;17.12;46.16;100474.03;4997458;28;1079;-58
2023/07/14 04:14:17;;;;;;;;;;;;;;;17.15;46.13;100478.97;4996759;28;1051;-60
2023/07/14 04:16:42;;;;;;;;;;;;;;;17.10;46.26;100485.31;4997079;28;1100;-59
2023/07/14 04:19:09;;;;;;;;;;;;;;;17.15;46.05;100490.75;4996665;28;1078;-59
2023/07/14 04:21:34;;;;;;;;;;;;;;;17.10;45.83;100497.13;4997412;28;1969;-59
2023/07/14 04:24:00;;;;;;;;;;;;;;;17.22;45.63;100501.44;4997515;28;1060;-58
2023/07/14 04:26:26;;;;;;;;;;;;;;;17.16;45.70;100508.09;4995397;28;1074;-58
2023/07/14 04:28:51;;;;;;;;;;;;;;;17.15;46.17;100520.16;4997303;28;1047;-58
2023/07/14 04:31:17;;;;;;;;;;;;;;;17.10;46.13;100527.34;4996175;28;1149;-58
2023/07/14 04:33:44;;;;;;;;;;;;;;;17.25;45.44;100522.84;4996891;28;1132;-58
2023/07/14 04:36:09;;;;;;;;;;;;;;;17.15;45.56;100534.72;4997293;28;1095;-59
2023/07/14 04:38:35;;;;;;;;;;;;;;;17.18;45.56;100533.34;4997271;28;1009;-62
2023/07/14 04:41:01;;;;;;;;;;;;;;;17.21;45.47;100543.78;4996622;28;1910;-61
2023/07/14 04:43:26;;;;;;;;;;;;;;;17.20;45.56;100558.63;4996075;28;1267;-61
2023/07/14 04:45:52;;;;;;;;;;;;;;;17.25;45.67;100605.28;4997112;28;1132;-61
2023/07/14 04:48:18;;;;;;;;;;;;;;;17.20;45.66;100625.38;4997414;28;1254;-61
2023/07/14 04:50:44;;;;;;;;;;;;;;;17.45;45.87;100635.44;4996699;28;1091;-60
2023/07/14 04:53:10;;;;;;;;;;;;;;;18.29;45.68;100640.09;4996891;28;1104;-57
2023/07/14 04:55:36;;;;;;;;;;;;;;;17.86;47.29;100619.78;4997091;28;1007;-56
2023/07/14 04:58:02;;;;;;;;;;;;;;;17.75;47.87;100608.03;4997079;28;1061;-56
2023/07/14 05:00:28;;;;;;;;;;;;;;;17.73;48.52;100594.56;4995436;28;1902;-58
2023/07/14 05:02:53;;;;;;;;;;;;;;;17.63;49.20;100600.16;4996736;28;1156;-56
2023/07/14 05:05:19;;;;;;;;;;;;;;;17.57;49.50;100593.88;4996762;28;1156;-57
2023/07/14 05:07:47;;;;;;;;;;;;;;;17.56;49.82;100596.91;4996870;28;1215;-57
2023/07/14 05:10:12;;;;;;;;;;;;;;;17.53;50.19;100602.94;4995273;28;1203;-56
2023/07/14 05:12:38;;;;;;;;;;;;;;;17.51;50.59;100600.47;4997032;28;1146;-56
2023/07/14 05:15:04;;;;;;;;;;;;;;;17.49;50.97;100610.97;4996122;28;1155;-56
2023/07/14 05:17:30;;;;;;;;;;;;;;;17.54;50.87;100597.16;4996727;28;1226;-56
2023/07/14 05:19:56;;;;;;;;;;;;;;;17.44;51.49;100586.22;4996946;28;1070;-56
2023/07/14 05:22:21;;;;;;;;;;;;;;;17.46;51.80;100611.53;4994831;28;1934;-56
2023/07/14 05:24:47;;;;;;;;;;;;;;;17.44;51.77;100616.47;4994920;28;1096;-56
2023/07/14 05:27:13;;;;;;;;;;;;;;;17.44;52.26;100638.47;4996898;28;1028;-56
2023/07/14 05:29:38;;;;;;;;;;;;;;;17.44;52.19;100636.53;4996272;28;1134;-56
2023/07/14 05:32:04;;;;;;;;;;;;;;;17.47;52.33;100637.06;4996550;28;1252;-54
2023/07/14 05:34:29;;;;;;;;;;;;;;;17.36;52.91;100659.13;4997013;28;1226;-56
2023/07/14 05:36:55;;;;;;;;;;;;;;;17.38;52.70;100654.16;4996281;28;1147;-55
2023/07/14 05:39:20;;;;;;;;;;;;;;;17.39;52.76;100686.03;4996359;28;1133;-56
2023/07/14 05:41:46;;;;;;;;;;;;;;;17.38;53.00;100702.81;4996729;28;1906;-55
2023/07/14 05:44:12;;;;;;;;;;;;;;;17.41;52.99;100727.81;5000333;28;1199;-61
2023/07/14 05:46:37;;;;;;;;;;;;;;;17.37;53.27;100717.66;5000522;28;1073;-62
2023/07/14 05:49:03;;;;;;;;;;;;;;;17.34;53.41;100719.03;5000551;28;1130;-59
2023/07/14 05:51:28;;;;;;;;;;;;;;;17.39;53.64;100710.78;4999762;28;1043;-62
2023/07/14 05:53:54;;;;;;;;;;;;;;;17.37;53.74;100696.47;4999707;28;1043;-59
2023/07/14 05:56:20;;;;;;;;;;;;;;;17.35;53.84;100668.47;4999963;28;1084;-56
2023/07/14 05:58:45;;;;;;;;;;;;;;;17.36;54.05;100655.53;4999948;28;1044;-55
2023/07/14 06:01:11;;;;;;;;;;;;;;;17.33;54.13;100665.16;4999840;28;1911;-55
2023/07/14 06:03:36;;;;;;;;;;;;;;;17.36;54.15;100644.53;4999539;28;1096;-56
2023/07/14 06:06:05;;;;;;;;;;;;;;;17.41;53.99;100631.59;5000121;28;1151;-55
2023/07/14 06:08:31;;;;;;;;;;;;;;;17.41;54.38;100631.59;5000002;28;1107;-56
2023/07/14 06:10:56;;;;;;;;;;;;;;;17.33;54.54;100634.94;5000049;28;1063;-56
2023/07/14 06:13:22;;;;;;;;;;;;;;;17.37;54.56;100619.53;4999100;28;1060;-56
2023/07/14 06:15:51;;;;;;;;;;;;;;;17.32;54.91;100626.97;4998940;28;1076;-55
2023/07/14 06:18:16;;;;;;;;;;;;;;;17.39;54.92;100644.81;4999366;28;1203;-56
2023/07/14 06:20:42;;;;;;;;;;;;;;;17.32;55.37;100627.81;4999662;28;1906;-56
2023/07/14 06:23:08;;;;;;;;;;;;;;;17.37;55.22;100614.03;4997888;28;1139;-62
2023/07/14 06:25:33;;;;;;;;;;;;;;;17.29;55.69;100620.09;4999414;28;1060;-58
2023/07/14 06:27:59;;;;;;;;;;;;;;;17.32;55.70;100644.31;4999379;28;1048;-58
2023/07/14 06:30:25;;;;;;;;;;;;;;;17.31;56.02;100675.63;4999744;28;1079;-58
2023/07/14 06:32:51;;;;;;;;;;;;;;;17.32;55.95;100663.53;4999523;28;1095;-58
2023/07/14 06:35:17;;;;;;;;;;;;;;;17.32;56.07;100636.06;4999558;28;1077;-57
2023/07/14 06:37:43;;;;;;;;;;;;;;;17.33;56.00;100645.13;4999180;28;1175;-58
2023/07/14 06:40:09;;;;;;;;;;;;;;;17.27;56.35;100658.06;4999187;28;2237;-58
2023/07/14 06:42:34;;;;;;;;;;;;;;;17.28;56.19;100649.53;4999273;28;1142;-56
2023/07/14 06:45:01;;;;;;;;;;;;;;;17.27;56.51;100644.31;4999250;28;1285;-59
2023/07/14 06:47:27;;;;;;;;;;;;;;;17.27;56.27;100650.63;4998133;28;1147;-57
2023/07/14 06:49:52;;;;;;;;;;;;;;;17.26;56.32;100635.25;4999255;28;1123;-63
2023/07/14 06:52:19;;;;;;;;;;;;;;;17.28;56.28;100651.47;4999261;28;1219;-60
2023/07/14 06:54:46;;;;;;;;;;;;;;;17.29;56.29;100666.81;4998207;28;1227;-59
2023/07/14 06:57:11;;;;;;;;;;;;;;;17.26;56.50;100661.91;4999742;28;1091;-57
2023/07/14 06:59:37;;;;;;;;;;;;;;;17.26;56.43;100660.00;4998836;28;1118;-58
2023/07/14 07:02:03;;;;;;;;;;;;;;;17.22;56.47;100671.81;4998871;28;1983;-59
2023/07/14 07:04:28;;;;;;;;;;;;;;;17.24;56.54;100644.88;4998485;28;1123;-58
2023/07/14 07:06:54;;;;;;;;;;;;;;;17.25;56.69;100693.22;4998973;28;1044;-58
2023/07/14 07:09:19;;;;;;;;;;;;;;;17.22;56.58;100667.16;4999150;28;1048;-63
2023/07/14 07:11:45;;;;;;;;;;;;;;;17.24;56.64;100661.38;4998881;28;1155;-60
2023/07/14 07:14:10;;;;;;;;;;;;;;;17.30;56.14;100700.66;4998899;28;1107;-60
2023/07/14 07:16:36;;;;;;;;;;;;;;;17.24;56.36;100680.59;4998790;28;1092;-60
2023/07/14 07:19:02;;;;;;;;;;;;;;;17.20;56.56;100696.00;4999111;28;1048;-60
2023/07/14 07:21:27;;;;;;;;;;;;;;;17.25;56.15;100702.31;4998775;28;1972;-59
2023/07/14 07:23:53;;;;;;;;;;;;;;;17.22;56.40;100710.28;4998974;28;1064;-58
2023/07/14 07:26:19;;;;;;;;;;;;;;;17.20;56.52;100685.81;4998520;28;1083;-57
2023/07/14 07:28:44;;;;;;;;;;;;;;;17.22;56.40;100707.53;4998311;28;1072;-57
2023/07/14 07:31:11;;;;;;;;;;;;;;;17.23;56.53;100700.94;4998378;28;1059;-58
2023/07/14 07:33:36;;;;;;;;;;;;;;;17.23;56.51;100701.75;4998291;28;1283;-55
2023/07/14 07:36:14;;;;;;;;;;;;;;;17.24;56.54;100713.59;4998383;28;1044;-56
2023/07/14 07:38:44;;;;;;;;;;;;;;;17.22;56.54;100710.28;4998615;28;1083;-56
2023/07/14 07:41:09;;;;;;;;;;;;;;;17.24;56.39;100714.41;4997896;28;1906;-56
2023/07/14 07:43:35;;;;;;;;;;;;;;;17.21;56.59;100697.66;4998675;28;1147;-55
2023/07/14 07:46:00;;;;;;;;;;;;;;;17.21;56.60;100703.16;4998414;28;1060;-54
2023/07/14 07:48:26;;;;;;;;;;;;;;;17.20;56.60;100718.81;4998356;28;1064;-57
2023/07/14 07:50:51;;;;;;;;;;;;;;;17.23;56.73;100725.66;4998310;28;1223;-55
2023/07/14 07:53:17;;;;;;;;;;;;;;;17.20;56.73;100724.28;4998417;28;914;-55
2023/07/14 07:55:50;;;;;;;;;;;;;;;17.24;56.43;100722.63;4998310;28;1147;-56
2023/07/14 07:58:16;;;;;;;;;;;;;;;17.22;56.70;100718.53;4998314;28;1057;-56
2023/07/14 08:00:43;;;;;;;;;;;;;;;17.23;56.49;100715.50;4998103;28;1984;-55
2023/07/14 08:03:09;;;;;;;;;;;;;;;17.20;56.74;100726.22;4998148;28;1128;-56
2023/07/14 08:05:35;;;;;;;;;;;;;;;17.20;56.63;100724.28;4996966;28;1031;-56
2023/07/14 08:08:00;;;;;;;;;;;;;;;17.23;56.59;100718.25;4997622;28;1123;-57
2023/07/14 08:10:26;;;;;;;;;;;;;;;17.18;56.74;100699.03;4997590;28;1135;-55
2023/07/14 08:12:52;;;;;;;;;;;;;;;17.24;56.63;100708.09;4997869;28;1123;-54
2023/07/14 08:15:18;;;;;;;;;;;;;;;17.22;56.52;100715.78;4997474;28;1071;-56
2023/07/14 08:17:56;;;;;;;;;;;;;;;17.23;56.79;100720.19;4997317;28;896;-55
2023/07/14 08:20:21;;;;;;;;;;;;;;;17.21;56.56;100714.16;4985600;28;1906;-56
2023/07/14 08:22:47;;;;;;;;;;;;;;;17.22;56.53;100721.28;4997577;28;1067;-55
2023/07/14 08:25:12;;;;;;;;;;;;;;;17.28;56.33;100720.16;4997766;28;1120;-55
2023/07/14 08:27:38;;;;;;;;;;;;;;;17.23;56.51;100714.69;4997599;28;1100;-55
2023/07/14 08:30:06;;;;;;;;;;;;;;;17.22;56.51;100716.63;4995713;28;1690;-55
2023/07/14 08:32:32;;;;;;;;;;;;;;;17.22;56.74;100715.78;4997177;28;1131;-57
2023/07/14 08:34:58;;;;;;;;;;;;;;;17.30;56.64;100711.63;4997483;28;1055;-54
2023/07/14 08:37:23;;;;;;;;;;;;;;;17.24;56.78;100706.16;4997453;28;1126;-55
2023/07/14 08:39:49;;;;;;;;;;;;;;;17.26;56.67;100719.59;4994650;28;2628;-52
2023/07/14 08:42:27;;;;;;;;;;;;;;;17.28;56.52;100718.22;4996336;28;1989;-54
2023/07/14 08:45:14;;;;;;;;;;;;;;;17.22;56.68;100716.63;4996547;28;2293;-53
2023/07/14 08:47:47;;;;;;;;;;;;;;;17.30;56.56;100714.38;4995588;28;2154;-54
2023/07/14 08:50:18;;;;;;;;;;;;;;;17.25;56.58;100706.97;5011975;28;1934;-53
2023/07/14 08:52:43;;;;;;;;;;;;;;;17.24;56.29;100703.41;4992803;28;2067;-52
2023/07/14 08:55:16;;;;;;;;;;;;;;;17.27;56.22;100691.03;4995487;28;1849;-51
2023/07/14 08:57:51;;;;;;;;;;;;;;;17.30;56.29;100693.22;4996722;28;1159;-53
2023/07/14 09:00:48;;;;;;;;;;;;;;;17.23;56.47;100695.44;4996610;28;1899;-54
2023/07/14 09:03:16;;;;;;;;;;;;;;;17.26;56.49;100703.13;4991878;28;1429;-53
2023/07/14 09:05:45;;;;;;;;;;;;;;;17.24;56.47;100692.41;4996764;28;900;-53
2023/07/14 09:08:11;;;;;;;;;;;;;;;17.26;56.42;100686.63;4996512;28;1052;-53
2023/07/14 09:10:48;;;;;;;;;;;;;;;17.28;56.28;100687.19;4996775;28;1092;-51
2023/07/14 09:13:29;;;;;;;;;;;;;;;17.26;56.29;100690.22;4996268;28;1195;-53
2023/07/14 09:15:55;;;;;;;;;;;;;;;17.27;56.34;100686.34;4996585;28;1084;-52
2023/07/14 09:18:28;;;;;;;;;;;;;;;17.27;56.42;100688.28;4994598;28;1047;-52
2023/07/14 09:21:03;;;;;;;;;;;;;;;17.25;56.52;100683.06;4995499;28;1971;-53
2023/07/14 09:23:28;;;;;;;;;;;;;;;17.28;56.34;100678.94;4995281;28;1108;-53
2023/07/14 09:26:13;;;;;;;;;;;;;;;17.33;56.30;100684.41;4996327;28;2541;-53
2023/07/14 09:28:39;;;;;;;;;;;;;;;17.33;56.31;100687.16;4984057;28;1020;-53
2023/07/14 09:34:32;;;;;;;;;;;;;;;17.31;56.49;100685.81;4995948;28;961;-52
2023/07/14 09:36:58;;;;;;;;;;;;;;;17.38;56.17;100676.16;4996112;28;1069;-52
2023/07/14 09:39:30;;;;;;;;;;;;;;;17.36;56.30;100688.53;4996054;28;1152;-53
2023/07/14 09:41:56;;;;;;;;;;;;;;;17.38;56.31;100689.88;4996078;28;1985;-52
2023/07/14 09:44:22;;;;;;;;;;;;;;;17.30;56.68;100689.66;4995917;28;1134;-53
2023/07/14 09:46:48;;;;;;;;;;;;;;;17.31;56.47;100686.63;4996326;28;1076;-54
2023/07/14 09:49:25;;;;;;;;;;;;;;;17.32;56.55;100693.78;4996295;28;1063;-52
2023/07/14 09:52:01;;;;;;;;;;;;;;;17.36;56.60;100692.09;4995230;28;1131;-53
2023/07/14 09:54:26;;;;;;;;;;;;;;;17.36;56.48;100689.34;4990095;28;1829;-54
2023/07/14 09:56:52;;;;;;;;;;;;;;;17.33;56.42;100687.16;4996470;28;1112;-54
2023/07/14 09:59:21;;;;;;;;;;;;;;;17.38;56.54;100687.13;4994793;28;1289;-54
2023/07/14 10:01:50;;;;;;;;;;;;;;;17.38;56.32;100691.81;4995858;28;1975;-54
2023/07/14 10:04:16;;;;;;;;;;;;;;;17.36;56.63;100683.03;4996318;28;1139;-53
2023/07/14 10:06:42;;;;;;;;;;;;;;;17.42;56.81;100687.41;4995790;28;900;-54
2023/07/14 10:09:11;;;;;;;;;;;;;;;17.37;56.93;100682.75;4995966;28;1021;-58
2023/07/14 10:11:44;;;;;;;;;;;;;;;17.39;56.67;100687.94;4996275;28;996;-56
2023/07/14 10:14:20;;;;;;;;;;;;;;;17.40;56.44;100687.69;4996113;28;1064;-55
2023/07/14 10:16:46;;;;;;;;;;;;;;;17.37;56.61;100681.94;4994626;28;1008;-55
2023/07/14 10:19:13;;;;;;;;;;;;;;;17.43;56.39;100684.38;4996162;28;900;-55
2023/07/14 10:21:38;;;;;;;;;;;;;;;17.40;56.57;100690.44;4995619;28;1975;-55
2023/07/14 10:24:05;;;;;;;;;;;;;;;17.42;56.57;100682.72;4995176;28;2414;-54
2023/07/14 10:26:32;;;;;;;;;;;;;;;17.40;56.73;100684.09;4995649;28;992;-54
2023/07/14 10:28:58;;;;;;;;;;;;;;;17.43;56.72;100687.13;4996762;28;1044;-56
2023/07/14 10:31:29;;;;;;;;;;;;;;;17.44;56.47;100680.50;4999238;28;930;-56
2023/07/14 10:34:10;;;;;;;;;;;;;;;17.39;56.56;100683.28;4998060;28;1135;-56
2023/07/14 10:36:37;;;;;;;;;;;;;;;17.41;56.73;100677.50;4998278;28;1064;-55
2023/07/14 10:39:11;;;;;;;;;;;;;;;17.41;56.75;100670.06;4998039;28;1142;-55
2023/07/14 10:41:37;;;;;;;;;;;;;;;17.43;56.54;100669.78;4998956;28;1898;-53
2023/07/14 10:44:03;;;;;;;;;;;;;;;17.42;56.49;100673.66;4998002;28;1040;-55
2023/07/14 10:46:38;;;;;;;;;;;;;;;17.43;56.51;100675.28;4998013;28;1052;-55
2023/07/14 10:49:33;;;;;;;;;;;;;;;17.43;56.60;100667.03;4998208;28;1164;-55
2023/07/14 10:52:03;;;;;;;;;;;;;;;17.42;56.66;100659.94;4993826;28;1259;-54
2023/07/14 10:54:35;;;;;;;;;;;;;;;17.44;56.69;100661.25;4997735;28;2267;-57
2023/07/14 10:57:05;;;;;;;;;;;;;;;17.42;56.45;100660.75;4998891;28;1207;-55
2023/07/14 10:59:50;;;;;;;;;;;;;;;17.46;56.51;100658.25;4999002;28;981;-56
2023/07/14 11:02:19;;;;;;;;;;;;;;;17.51;56.53;100662.91;4998303;28;1910;-55
2023/07/14 11:04:49;;;;;;;;;;;;;;;17.48;56.35;100655.22;4998006;28;1147;-54
2023/07/14 11:07:41;;;;;;;;;;;;;;;17.50;56.32;100662.09;4998244;28;1255;-55
2023/07/14 11:10:16;;;;;;;;;;;;;;;17.45;56.47;100657.41;4997477;28;1438;-55
2023/07/14 11:12:41;;;;;;;;;;;;;;;17.43;56.70;100653.31;4998099;28;1108;-55
2023/07/14 11:15:15;;;;;;;;;;;;;;;17.47;56.42;100657.13;4998691;28;1195;-56
2023/07/14 11:17:41;;;;;;;;;;;;;;;17.48;56.50;100656.03;4996924;28;1545;-56
2023/07/14 11:20:15;;;;;;;;;;;;;;;17.45;56.91;100654.66;4998656;28;1184;-58
2023/07/14 11:23:19;;;;;;;;;;;;;;;17.47;56.69;100651.63;4999134;28;1163;-56
2023/07/14 11:26:05;;;;;;;;;;;;;;;17.48;56.91;100641.47;4971903;28;2525;-55
2023/07/14 11:28:34;;;;;;;;;;;;;;;17.46;56.71;100650.00;4977003;28;1160;-56
2023/07/14 11:31:00;;;;;;;;;;;;;;;17.50;56.94;100650.25;4990070;28;1176;-56
2023/07/14 11:33:40;;;;;;;;;;;;;;;17.45;56.97;100643.66;4998290;28;1005;-54
2023/07/14 11:36:11;;;;;;;;;;;;;;;17.45;56.89;100651.09;4998319;28;1064;-57
2023/07/14 11:38:56;;;;;;;;;;;;;;;17.52;56.67;100648.06;4998326;28;1072;-57
2023/07/14 11:41:22;;;;;;;;;;;;;;;17.47;56.78;100648.06;4997999;28;1902;-57
2023/07/14 11:43:47;;;;;;;;;;;;;;;17.51;56.72;100646.41;4997858;28;884;-57
2023/07/14 11:46:14;;;;;;;;;;;;;;;17.49;56.87;100648.59;4998252;28;1162;-56
2023/07/14 11:48:43;;;;;;;;;;;;;;;17.45;56.83;100660.16;4996819;28;1135;-57
2023/07/14 11:51:10;;;;;;;;;;;;;;;17.46;56.77;100655.50;4997749;28;1075;-58
2023/07/14 11:53:37;;;;;;;;;;;;;;;17.46;56.69;100655.50;4998278;28;1349;-57
2023/07/14 11:56:12;;;;;;;;;;;;;;;17.48;56.88;100655.22;4997301;28;2360;-55
2023/07/14 11:58:39;;;;;;;;;;;;;;;17.43;57.01;100659.63;4994253;28;924;-59
2023/07/14 12:01:23;;;;;;;;;;;;;;;17.44;57.03;100664.00;4997696;28;1971;-59
2023/07/14 12:03:49;;;;;;;;;;;;;;;17.50;56.81;100672.25;4997317;28;991;-57
2023/07/14 12:06:20;;;;;;;;;;;;;;;17.41;57.02;100674.75;4997252;28;989;-55
2023/07/14 12:09:06;;;;;;;;;;;;;;;17.47;56.86;100656.31;4997799;28;1160;-55
2023/07/14 12:11:52;;;;;;;;;;;;;;;17.45;56.84;100651.09;4996936;28;1143;-56
2023/07/14 12:14:24;;;;;;;;;;;;;;;17.44;56.93;100654.94;4996520;28;1208;-56
2023/07/14 12:16:50;;;;;;;;;;;;;;;17.40;56.69;100665.72;4997930;28;1118;-55
2023/07/14 12:19:20;;;;;;;;;;;;;;;17.39;57.08;100661.31;4996959;28;1287;-55
2023/07/14 12:22:02;;;;;;;;;;;;;;;17.39;56.94;100666.81;4997372;28;1905;-57
2023/07/14 12:24:30;;;;;;;;;;;;;;;17.39;56.90;100655.81;4996847;28;1814;-54
2023/07/14 12:27:06;;;;;;;;;;;;;;;17.39;56.73;100655.81;4996600;28;1345;-55
2023/07/14 12:29:31;;;;;;;;;;;;;;;17.37;56.83;100657.19;4996099;28;1067;-55
2023/07/14 12:31:57;;;;;;;;;;;;;;;17.40;56.72;100657.47;4995546;28;851;-55
2023/07/14 12:34:23;;;;;;;;;;;;;;;17.35;56.81;100667.63;4996925;28;1017;-54
2023/07/14 12:36:49;;;;;;;;;;;;;;;17.36;56.61;100675.63;4997652;28;1152;-55
2023/07/14 12:39:15;;;;;;;;;;;;;;;17.34;56.52;100672.31;4997041;28;1075;-56
2023/07/14 12:41:42;;;;;;;;;;;;;;;17.35;56.66;100670.38;4997217;28;1906;-57
2023/07/14 12:44:10;;;;;;;;;;;;;;;17.33;56.68;100667.09;4996691;28;946;-55
2023/07/14 12:46:36;;;;;;;;;;;;;;;17.32;56.71;100660.78;4997058;28;1055;-55
2023/07/14 12:49:02;;;;;;;;;;;;;;;17.31;56.79;100675.63;4996438;28;1060;-55
2023/07/14 12:51:27;;;;;;;;;;;;;;;17.33;56.66;100667.91;4996584;28;1048;-55
2023/07/14 12:54:00;;;;;;;;;;;;;;;17.32;56.71;100666.28;4995395;28;2282;-55
2023/07/14 12:56:29;;;;;;;;;;;;;;;17.29;56.55;100658.59;4996407;28;863;-55